createdAt,value
2022-10-18T00:00:00.666Z,5.45
2022-10-18T00:02:27.352Z,5.35
2022-10-18T00:04:53.971Z,4.60
2022-10-18T00:07:20.563Z,5.32
2022-10-18T00:09:47.158Z,5.15
2022-10-18T00:12:13.864Z,5.20
2022-10-18T00:14:40.430Z,5.15
2022-10-18T00:17:07.159Z,5.05
2022-10-18T00:19:33.711Z,5.75
2022-10-18T00:22:00.267Z,5.65
2022-10-18T00:24:26.845Z,5.68
2022-10-18T00:26:53.396Z,5.90
2022-10-18T00:29:20.018Z,5.15
2022-10-18T00:31:46.573Z,5.40
2022-10-18T00:34:15.547Z,5.38
2022-10-18T00:36:43.962Z,4.97
2022-10-18T00:39:17.546Z,5.20
2022-10-18T00:41:44.708Z,4.90
2022-10-18T00:44:11.224Z,4.28
2022-10-18T00:46:43.561Z,4.13
2022-10-18T00:49:18.948Z,4.88
2022-10-18T00:52:00.564Z,5.13
2022-10-18T00:54:29.958Z,5.93
2022-10-18T00:56:57.126Z,5.63
2022-10-18T00:59:24.686Z,6.20
2022-10-18T01:01:51.353Z,6.68
2022-10-18T01:04:19.406Z,6.70
2022-10-18T01:06:59.615Z,6.45
2022-10-18T01:09:41.599Z,5.75
2022-10-18T01:12:53.412Z,5.25
2022-10-18T01:15:23.054Z,5.70
2022-10-18T01:18:05.276Z,6.47
2022-10-18T01:20:59.790Z,4.65
2022-10-18T01:24:00.127Z,5.78
2022-10-18T01:26:52.939Z,4.75
2022-10-18T01:29:47.775Z,4.82
2022-10-18T01:32:19.769Z,4.65
2022-10-18T01:34:49.010Z,5.10
2022-10-18T01:37:19.988Z,5.45
2022-10-18T01:39:48.563Z,4.50
2022-10-18T01:42:20.283Z,5.40
2022-10-18T01:44:48.423Z,6.65
2022-10-18T01:47:16.827Z,5.93
2022-10-18T01:49:43.431Z,6.22
2022-10-18T01:52:14.300Z,6.38
2022-10-18T01:54:46.290Z,6.85
2022-10-18T01:57:36.989Z,8.48
2022-10-18T02:00:12.846Z,6.03
2022-10-18T02:03:05.665Z,5.93
2022-10-18T02:06:03.545Z,5.38
2022-10-18T02:08:44.033Z,5.18
2022-10-18T02:11:13.720Z,6.13
2022-10-18T02:13:49.660Z,5.57
2022-10-18T02:16:48.440Z,5.93
2022-10-18T02:21:54.729Z,4.78
2022-10-18T02:24:23.812Z,5.03
2022-10-18T02:26:50.586Z,5.30
2022-10-18T02:29:17.478Z,5.57
2022-10-18T02:31:46.592Z,5.35
2022-10-18T02:34:19.144Z,5.05
2022-10-18T02:36:52.974Z,4.85
2022-10-18T02:39:25.173Z,4.97
2022-10-18T02:41:54.372Z,6.07
2022-10-18T02:44:21.100Z,6.65
2022-10-18T02:46:48.174Z,6.75
2022-10-18T02:49:14.786Z,7.60
2022-10-18T02:51:41.639Z,6.90
2022-10-18T02:54:08.570Z,5.68
2022-10-18T02:56:35.785Z,7.10
2022-10-18T02:59:03.736Z,7.18
2022-10-18T03:01:30.469Z,7.70
2022-10-18T03:03:57.923Z,7.57
2022-10-18T03:06:24.498Z,8.30
2022-10-18T03:08:51.165Z,8.25
2022-10-18T03:11:17.797Z,7.38
2022-10-18T03:13:44.473Z,7.65
2022-10-18T03:16:11.958Z,7.93
2022-10-18T03:18:38.543Z,8.77
2022-10-18T03:21:06.989Z,8.13
2022-10-18T03:23:33.989Z,7.88
2022-10-18T03:26:00.790Z,6.75
2022-10-18T03:28:27.632Z,7.57
2022-10-18T03:30:59.199Z,7.95
2022-10-18T03:33:25.806Z,7.32
2022-10-18T03:35:52.350Z,6.93
2022-10-18T03:38:18.930Z,5.75
2022-10-18T03:40:45.513Z,6.25
2022-10-18T03:43:12.103Z,7.03
2022-10-18T03:45:38.688Z,6.18
2022-10-18T03:48:05.676Z,5.95
2022-10-18T03:50:32.276Z,6.55
2022-10-18T03:52:58.983Z,6.45
2022-10-18T03:55:25.679Z,5.40
2022-10-18T03:57:52.308Z,5.57
2022-10-18T04:00:18.905Z,6.88
2022-10-18T04:02:45.557Z,6.90
2022-10-18T04:05:13.022Z,7.28
2022-10-18T04:07:39.645Z,7.18
2022-10-18T04:10:07.102Z,8.32
2022-10-18T04:12:33.968Z,8.68
2022-10-18T04:15:00.778Z,7.13
2022-10-18T04:17:27.327Z,8.30
2022-10-18T04:19:53.946Z,7.32
2022-10-18T04:22:20.510Z,7.20
2022-10-18T04:24:47.121Z,6.78
2022-10-18T04:27:13.727Z,6.13
2022-10-18T04:29:40.384Z,8.02
2022-10-18T04:32:06.945Z,7.65
2022-10-18T04:34:33.582Z,6.53
2022-10-18T04:37:00.245Z,11.93
2022-10-18T04:39:26.931Z,11.35
2022-10-18T04:41:53.607Z,10.95
2022-10-18T04:44:20.166Z,8.35
2022-10-18T04:46:46.751Z,6.78
2022-10-18T04:49:13.384Z,6.78
2022-10-18T04:51:40.228Z,6.63
2022-10-18T04:54:06.834Z,6.57
2022-10-18T04:56:33.475Z,8.23
2022-10-18T04:59:00.086Z,7.65
2022-10-18T05:01:26.794Z,8.73
2022-10-18T05:03:54.533Z,8.23
2022-10-18T05:06:21.915Z,6.65
2022-10-18T05:08:49.420Z,6.97
2022-10-18T05:11:15.997Z,7.97
2022-10-18T05:13:44.945Z,7.32
2022-10-18T05:16:13.840Z,6.88
2022-10-18T05:18:40.523Z,8.10
2022-10-18T05:21:07.113Z,6.38
2022-10-18T05:23:33.801Z,7.72
2022-10-18T05:26:06.187Z,8.70
2022-10-18T05:28:39.270Z,10.07
2022-10-18T05:31:08.601Z,9.45
2022-10-18T05:33:35.515Z,13.23
2022-10-18T05:36:02.111Z,13.65
2022-10-18T05:38:31.038Z,10.48
2022-10-18T05:40:58.432Z,10.38
2022-10-18T05:43:28.873Z,10.38
2022-10-18T05:45:55.795Z,9.60
2022-10-18T05:48:22.753Z,9.35
2022-10-18T05:50:49.428Z,7.57
2022-10-18T05:53:35.621Z,16.13
2022-10-18T05:56:03.212Z,8.05
2022-10-18T05:58:29.823Z,9.27
2022-10-18T06:00:59.926Z,9.27
2022-10-18T06:03:27.724Z,9.02
2022-10-18T06:06:00.259Z,8.95
2022-10-18T06:08:27.287Z,10.03
2022-10-18T06:10:53.920Z,8.85
2022-10-18T06:13:20.460Z,9.95
2022-10-18T06:15:47.029Z,9.55
2022-10-18T06:18:13.583Z,9.48
2022-10-18T06:20:40.136Z,8.15
2022-10-18T06:23:06.908Z,8.82
2022-10-18T06:25:33.536Z,9.32
2022-10-18T06:28:00.079Z,8.27
2022-10-18T06:30:26.692Z,8.35
2022-10-18T06:32:53.338Z,7.45
2022-10-18T06:35:19.906Z,6.95
2022-10-18T06:37:46.463Z,5.65
2022-10-18T06:40:13.015Z,5.30
2022-10-18T06:42:40.323Z,4.70
2022-10-18T06:45:07.591Z,5.22
2022-10-18T06:47:34.215Z,4.57
2022-10-18T06:50:00.806Z,4.82
2022-10-18T06:52:27.378Z,5.07
2022-10-18T06:54:54.083Z,5.20
2022-10-18T06:57:21.650Z,5.15
2022-10-18T06:59:49.976Z,4.88
2022-10-18T07:02:17.501Z,6.00
2022-10-18T07:04:44.218Z,5.80
2022-10-18T07:07:10.922Z,6.20
2022-10-18T07:09:37.508Z,5.88
2022-10-18T07:12:04.383Z,10.00
2022-10-18T07:14:30.944Z,4.97
2022-10-18T07:17:00.720Z,5.47
2022-10-18T07:19:27.396Z,6.07
2022-10-18T07:21:53.963Z,5.15
2022-10-18T07:24:20.581Z,5.05
2022-10-18T07:26:47.219Z,4.75
2022-10-18T07:29:13.790Z,4.13
2022-10-18T07:31:41.095Z,4.05
2022-10-18T07:34:10.912Z,4.45
2022-10-18T07:36:37.588Z,4.43
2022-10-18T07:39:04.905Z,4.22
2022-10-18T07:41:33.648Z,4.47
2022-10-18T07:44:01.407Z,4.40
2022-10-18T07:46:28.051Z,4.28
2022-10-18T07:48:54.985Z,3.85
2022-10-18T07:51:22.284Z,4.40
2022-10-18T07:53:48.848Z,5.82
2022-10-18T07:56:20.618Z,4.53
2022-10-18T07:58:51.259Z,4.50
2022-10-18T08:01:19.155Z,4.55
2022-10-18T08:03:46.273Z,4.13
2022-10-18T08:06:15.172Z,5.88
2022-10-18T08:08:42.491Z,5.25
2022-10-18T08:11:15.657Z,4.18
2022-10-18T08:13:43.328Z,4.25
2022-10-18T08:16:17.725Z,4.25
2022-10-18T08:18:44.376Z,4.15
2022-10-18T08:21:13.183Z,4.20
2022-10-18T08:23:40.603Z,5.05
2022-10-18T08:26:10.555Z,3.53
2022-10-18T08:28:37.829Z,3.97
2022-10-18T08:31:06.595Z,3.53
2022-10-18T08:33:34.842Z,2.97
2022-10-18T08:36:07.482Z,3.40
2022-10-18T08:38:38.749Z,3.60
2022-10-18T08:41:36.724Z,6.05
2022-10-18T08:44:17.490Z,3.95
2022-10-18T08:46:50.155Z,3.15
2022-10-18T08:49:28.525Z,3.40
2022-10-18T08:51:57.000Z,3.20
2022-10-18T08:54:37.615Z,3.40
2022-10-18T08:57:13.043Z,3.83
2022-10-18T08:59:41.038Z,2.90
2022-10-18T09:02:26.888Z,2.72
2022-10-18T09:05:05.658Z,2.90
2022-10-18T09:08:09.797Z,2.58
2022-10-18T09:10:52.257Z,2.80
2022-10-18T09:13:31.195Z,3.05
2022-10-18T09:16:10.805Z,2.63
2022-10-18T09:19:02.683Z,2.90
2022-10-18T09:21:44.423Z,3.00
2022-10-18T09:24:22.348Z,2.55
2022-10-18T09:26:55.722Z,3.30
2022-10-18T09:29:40.400Z,2.30
2022-10-18T09:32:31.906Z,2.60
2022-10-18T09:35:13.865Z,2.05
2022-10-18T09:37:42.035Z,2.67
2022-10-18T09:40:19.039Z,2.70
2022-10-18T09:43:12.155Z,2.15
2022-10-18T09:45:44.817Z,2.65
2022-10-18T09:48:20.010Z,2.87
2022-10-18T09:50:53.832Z,2.25
2022-10-18T09:53:37.695Z,2.20
2022-10-18T09:58:47.941Z,3.33
2022-10-18T10:01:19.810Z,2.72
2022-10-18T10:03:46.477Z,3.00
2022-10-18T10:06:13.144Z,3.75
2022-10-18T10:08:47.660Z,2.35
2022-10-18T10:11:35.076Z,3.72
2022-10-18T10:14:23.208Z,2.72
2022-10-18T10:17:02.282Z,2.30
2022-10-18T10:19:33.629Z,2.90
2022-10-18T10:22:07.342Z,3.58
2022-10-18T10:24:51.232Z,2.60
2022-10-18T10:27:20.637Z,4.35
2022-10-18T10:29:47.211Z,2.70
2022-10-18T10:32:22.224Z,3.28
2022-10-18T10:34:49.632Z,3.05
2022-10-18T10:37:25.296Z,3.70
2022-10-18T10:40:19.301Z,2.55
2022-10-18T10:43:38.891Z,2.63
2022-10-18T10:46:15.308Z,2.90
2022-10-18T10:48:41.829Z,2.78
2022-10-18T10:51:11.021Z,3.15
2022-10-18T10:53:43.253Z,2.22
2022-10-18T10:56:24.617Z,2.63
2022-10-18T10:58:52.281Z,2.22
2022-10-18T11:01:23.564Z,2.60
2022-10-18T11:03:53.284Z,2.50
2022-10-18T11:06:40.855Z,2.58
2022-10-18T11:09:19.506Z,2.45
2022-10-18T11:11:58.641Z,2.38
2022-10-18T11:14:30.376Z,2.35
2022-10-18T11:16:56.880Z,2.40
2022-10-18T11:19:53.288Z,2.83
2022-10-18T11:22:24.362Z,2.30
2022-10-18T11:24:51.028Z,2.88
2022-10-18T11:27:20.636Z,3.78
2022-10-18T11:30:08.861Z,2.95
2022-10-18T11:33:03.236Z,2.95
2022-10-18T11:35:32.615Z,1.98
2022-10-18T11:38:22.202Z,2.33
2022-10-18T11:41:30.489Z,3.15
2022-10-18T11:44:04.222Z,2.30
2022-10-18T11:46:42.960Z,2.95
2022-10-18T11:49:28.151Z,2.40
2022-10-18T11:52:27.525Z,2.65
2022-10-18T11:55:10.047Z,2.60
2022-10-18T11:57:58.364Z,2.42
2022-10-18T12:01:07.432Z,2.20
2022-10-18T12:03:57.971Z,2.35
2022-10-18T12:06:30.862Z,2.65
2022-10-18T12:09:02.105Z,2.22
2022-10-18T12:11:38.622Z,2.35
2022-10-18T12:14:14.930Z,2.20
2022-10-18T12:16:51.562Z,3.05
2022-10-18T12:19:26.706Z,2.40
2022-10-18T12:21:57.609Z,2.30
2022-10-18T12:24:30.337Z,2.45
2022-10-18T12:27:02.435Z,2.73
2022-10-18T12:29:32.023Z,2.95
2022-10-18T12:32:17.685Z,2.65
2022-10-18T12:34:52.267Z,2.85
2022-10-18T12:37:27.951Z,3.17
2022-10-18T12:40:10.536Z,2.67
2022-10-18T12:42:45.198Z,2.10
2022-10-18T12:45:35.523Z,2.80
2022-10-18T12:48:06.886Z,2.58
2022-10-18T12:50:44.307Z,2.10
2022-10-18T12:53:12.270Z,2.50
2022-10-18T12:55:41.065Z,2.83
2022-10-18T12:58:22.641Z,3.20
2022-10-18T13:00:49.194Z,2.58
2022-10-18T13:03:18.308Z,2.50
2022-10-18T13:05:53.561Z,2.78
2022-10-18T13:08:38.262Z,2.85
2022-10-18T13:11:07.851Z,2.67
2022-10-18T13:13:52.938Z,3.47
2022-10-18T13:16:22.752Z,2.80
2022-10-18T13:19:14.147Z,2.90
2022-10-18T13:21:54.971Z,2.72
2022-10-18T13:24:56.206Z,2.22
2022-10-18T13:27:37.079Z,4.60
2022-10-18T13:30:27.898Z,4.63
2022-10-18T13:33:23.535Z,2.78
2022-10-18T13:36:00.798Z,2.33
2022-10-18T13:38:30.828Z,2.30
2022-10-18T13:41:05.120Z,2.90
2022-10-18T13:43:56.810Z,5.00
2022-10-18T13:46:32.512Z,2.53
2022-10-18T13:49:14.733Z,2.30
2022-10-18T13:51:55.541Z,2.90
2022-10-18T13:54:42.287Z,2.97
2022-10-18T13:57:24.312Z,2.85
2022-10-18T14:00:12.721Z,2.80
2022-10-18T14:02:59.864Z,2.72
2022-10-18T14:05:49.108Z,2.90
2022-10-18T14:08:40.172Z,2.47
2022-10-18T14:11:47.577Z,2.25
2022-10-18T14:14:34.419Z,3.03
2022-10-18T14:17:19.959Z,3.40
2022-10-18T14:19:54.295Z,2.58
2022-10-18T14:22:33.271Z,3.50
2022-10-18T14:25:00.153Z,2.80
2022-10-18T14:27:29.183Z,4.20
2022-10-18T14:30:10.301Z,3.35
2022-10-18T14:32:37.072Z,3.50
2022-10-18T14:35:34.018Z,4.00
2022-10-18T14:37:52.946Z,3.63
2022-10-18T14:40:38.891Z,3.08
2022-10-18T14:43:14.769Z,4.03
2022-10-18T14:45:44.608Z,3.33
2022-10-18T14:48:21.951Z,3.05
2022-10-18T14:51:00.217Z,3.17
2022-10-18T14:53:36.262Z,3.35
2022-10-18T14:56:04.593Z,3.35
2022-10-18T14:58:32.052Z,3.47
2022-10-18T15:00:59.792Z,5.68
2022-10-18T15:03:28.392Z,5.00
2022-10-18T15:05:59.344Z,4.13
2022-10-18T15:08:51.563Z,3.92
2022-10-18T15:11:18.607Z,3.28
2022-10-18T15:13:53.515Z,3.00
2022-10-18T15:16:23.452Z,3.47
2022-10-18T15:19:15.789Z,4.28
2022-10-18T15:22:34.136Z,3.80
2022-10-18T15:25:14.754Z,4.70
2022-10-18T15:28:02.307Z,5.28
2022-10-18T15:30:38.624Z,5.07
2022-10-18T15:33:10.523Z,12.63
2022-10-18T15:35:38.677Z,11.95
2022-10-18T15:38:16.091Z,7.03
2022-10-18T15:40:43.796Z,6.25
2022-10-18T15:43:25.781Z,6.90
2022-10-18T15:46:01.588Z,6.90
2022-10-18T15:48:35.454Z,15.45
2022-10-18T15:51:19.570Z,14.45
2022-10-18T15:53:53.158Z,18.90
2022-10-18T15:59:06.810Z,30.33
2022-10-18T16:01:42.782Z,42.20
2022-10-18T16:04:18.909Z,40.50
2022-10-18T16:06:45.880Z,41.75
2022-10-18T16:09:18.301Z,36.17
2022-10-18T16:11:45.408Z,40.03
2022-10-18T16:14:12.147Z,46.08
2022-10-18T16:16:40.252Z,49.75
2022-10-18T16:19:07.568Z,58.40
2022-10-18T16:21:37.401Z,47.15
2022-10-18T16:24:04.704Z,49.53
2022-10-18T16:26:31.864Z,50.88
2022-10-18T16:28:59.051Z,55.03
2022-10-18T16:32:01.629Z,41.35
2022-10-18T16:34:28.375Z,37.08
2022-10-18T16:36:55.396Z,39.28
2022-10-18T16:39:22.925Z,44.60
2022-10-18T16:41:49.845Z,63.92
2022-10-18T16:44:17.209Z,72.53
2022-10-18T16:46:44.269Z,52.17
2022-10-18T16:49:25.303Z,39.47
2022-10-18T16:51:53.571Z,40.72
2022-10-18T16:54:20.408Z,40.60
2022-10-18T16:56:47.853Z,40.47
2022-10-18T16:59:26.854Z,34.25
2022-10-18T17:01:53.728Z,35.33
2022-10-18T17:04:20.480Z,34.42
2022-10-18T17:06:49.016Z,27.00
2022-10-18T17:09:16.471Z,16.85
2022-10-18T17:11:43.202Z,16.80
2022-10-18T17:14:09.813Z,19.45
2022-10-18T17:16:38.876Z,19.20
2022-10-18T17:19:08.068Z,18.35
2022-10-18T17:21:35.319Z,16.23
2022-10-18T17:24:03.263Z,16.77
2022-10-18T17:26:30.630Z,20.08
2022-10-18T17:29:03.945Z,29.30
2022-10-18T17:31:32.289Z,28.00
2022-10-18T17:34:01.561Z,38.58
2022-10-18T17:36:29.824Z,51.05
2022-10-18T17:38:56.595Z,24.00
2022-10-18T17:41:23.343Z,15.15
2022-10-18T17:43:49.988Z,13.07
2022-10-18T17:46:17.874Z,11.18
2022-10-18T17:48:44.678Z,9.45
2022-10-18T17:51:14.874Z,9.95
2022-10-18T17:53:41.523Z,9.98
2022-10-18T17:56:09.349Z,10.93
2022-10-18T17:58:36.118Z,10.90
2022-10-18T18:01:28.946Z,8.05
2022-10-18T18:03:57.313Z,8.23
2022-10-18T18:06:37.411Z,8.70
2022-10-18T18:09:10.853Z,9.63
2022-10-18T18:14:09.025Z,8.75
2022-10-18T18:16:41.483Z,7.60
2022-10-18T18:19:09.946Z,7.90
2022-10-18T18:21:37.260Z,7.80
2022-10-18T18:24:04.518Z,10.13
2022-10-18T18:26:32.869Z,10.48
2022-10-18T18:29:00.113Z,10.38
2022-10-18T18:31:30.711Z,8.80
2022-10-18T18:34:01.008Z,21.38
2022-10-18T18:36:32.567Z,19.42
2022-10-18T18:38:59.529Z,19.83
2022-10-18T18:41:27.988Z,20.25
2022-10-18T18:44:02.115Z,18.63
2022-10-18T18:46:33.174Z,17.35
2022-10-18T18:49:00.217Z,13.35
2022-10-18T18:51:26.913Z,12.93
2022-10-18T18:53:53.840Z,12.07
2022-10-18T18:56:23.557Z,11.52
2022-10-18T18:58:52.161Z,11.52
2022-10-18T19:01:27.469Z,11.63
2022-10-18T19:03:56.132Z,10.10
2022-10-18T19:06:25.428Z,8.80
2022-10-18T19:09:00.837Z,8.50
2022-10-18T19:11:31.263Z,9.55
2022-10-18T19:13:58.731Z,9.80
2022-10-18T19:16:26.809Z,11.05
2022-10-18T19:19:12.784Z,10.93
2022-10-18T19:21:45.523Z,8.48
2022-10-18T19:24:13.055Z,6.97
2022-10-18T19:26:44.850Z,7.13
2022-10-18T19:29:22.246Z,7.28
2022-10-18T19:31:52.726Z,7.90
2022-10-18T19:34:20.610Z,7.38
2022-10-18T19:36:48.791Z,7.70
2022-10-18T19:39:24.388Z,6.97
2022-10-18T19:41:56.706Z,6.50
2022-10-18T19:44:25.202Z,5.68
2022-10-18T19:46:51.893Z,7.82
2022-10-18T19:49:18.562Z,6.97
2022-10-18T19:51:45.428Z,6.53
2022-10-18T19:54:13.215Z,7.07
2022-10-18T19:56:41.757Z,6.50
2022-10-18T19:59:09.370Z,13.45
2022-10-18T20:01:36.235Z,11.73
2022-10-18T20:04:07.294Z,13.63
2022-10-18T20:06:34.805Z,12.95
2022-10-18T20:09:01.814Z,9.27
2022-10-18T20:11:29.449Z,10.23
2022-10-18T20:13:56.727Z,10.63
2022-10-18T20:16:28.366Z,7.65
2022-10-18T20:18:57.300Z,7.20
2022-10-18T20:21:24.044Z,7.32
2022-10-18T20:23:50.628Z,8.43
2022-10-18T20:26:20.802Z,7.75
2022-10-18T20:28:57.382Z,6.85
2022-10-18T20:31:27.187Z,7.60
2022-10-18T20:33:58.777Z,7.70
2022-10-18T20:36:27.347Z,9.57
2022-10-18T20:38:54.928Z,8.35
2022-10-18T20:41:25.013Z,7.30
2022-10-18T20:43:53.659Z,7.68
2022-10-18T20:46:20.784Z,8.95
2022-10-18T20:48:48.766Z,9.38
2022-10-18T20:51:17.011Z,12.73
2022-10-18T20:53:43.767Z,12.60
2022-10-18T20:56:13.319Z,13.50
2022-10-18T20:58:41.743Z,12.90
2022-10-18T21:01:11.157Z,12.65
2022-10-18T21:03:39.671Z,15.63
2022-10-18T21:06:13.691Z,14.63
2022-10-18T21:08:40.398Z,13.55
2022-10-18T21:11:07.510Z,11.40
2022-10-18T21:13:34.628Z,9.30
2022-10-18T21:16:02.398Z,7.90
2022-10-18T21:18:31.733Z,7.25
2022-10-18T21:21:16.046Z,6.72
2022-10-18T21:23:42.765Z,7.65
2022-10-18T21:26:15.971Z,7.03
2022-10-18T21:28:43.048Z,6.00
2022-10-18T21:31:12.767Z,4.95
2022-10-18T21:33:41.005Z,6.30
2022-10-18T21:36:08.048Z,5.55
2022-10-18T21:38:34.702Z,5.38
2022-10-18T21:41:01.741Z,5.78
2022-10-18T21:43:28.483Z,6.50
2022-10-18T21:46:00.044Z,6.90
2022-10-18T21:48:27.689Z,6.28
2022-10-18T21:50:54.877Z,5.85
2022-10-18T21:53:21.901Z,5.35
2022-10-18T21:55:49.069Z,5.68
2022-10-18T21:58:15.636Z,7.45
2022-10-18T22:00:42.265Z,7.50
2022-10-18T22:03:13.761Z,8.05
2022-10-18T22:05:40.408Z,6.65
2022-10-18T22:08:07.554Z,7.15
2022-10-18T22:10:34.209Z,7.05
2022-10-18T22:13:01.457Z,7.10
2022-10-18T22:15:28.095Z,6.85
2022-10-18T22:17:54.708Z,8.75
2022-10-18T22:20:21.284Z,10.13
2022-10-18T22:22:47.843Z,9.57
2022-10-18T22:25:14.460Z,8.88
2022-10-18T22:27:41.243Z,9.10
2022-10-18T22:30:08.310Z,11.35
2022-10-18T22:32:34.860Z,8.93
2022-10-18T22:35:01.449Z,7.35
2022-10-18T22:37:28.072Z,6.50
2022-10-18T22:39:54.648Z,5.80
2022-10-18T22:42:21.339Z,6.07
2022-10-18T22:44:47.955Z,4.60
2022-10-18T22:47:14.580Z,4.78
2022-10-18T22:49:41.230Z,4.75
2022-10-18T22:52:07.822Z,4.78
2022-10-18T22:54:34.413Z,5.13
2022-10-18T22:57:01.020Z,4.72
2022-10-18T22:59:27.602Z,5.25
2022-10-18T23:01:54.160Z,4.68
2022-10-18T23:04:20.759Z,4.97
2022-10-18T23:06:47.400Z,4.78
2022-10-18T23:09:14.064Z,4.85
2022-10-18T23:11:40.688Z,4.60
2022-10-18T23:14:07.721Z,4.35
2022-10-18T23:16:34.654Z,4.57
2022-10-18T23:19:01.309Z,6.95
2022-10-18T23:21:28.837Z,9.07
2022-10-18T23:23:56.713Z,9.15
2022-10-18T23:26:26.178Z,6.78
2022-10-18T23:28:54.204Z,7.57
2022-10-18T23:31:23.973Z,6.22
2022-10-18T23:33:52.782Z,5.47
2022-10-18T23:36:19.583Z,5.03
2022-10-18T23:38:46.258Z,6.22
2022-10-18T23:41:14.748Z,5.70
2022-10-18T23:43:42.105Z,5.05
2022-10-18T23:46:09.660Z,5.00
2022-10-18T23:48:36.719Z,4.82
2022-10-18T23:51:03.875Z,4.10
2022-10-18T23:53:31.113Z,5.00
2022-10-18T23:55:57.710Z,5.45
2022-10-18T23:58:25.322Z,7.93
